< < Back
Terminal Aerodrome Forecast


Current Version              Previous Versions:   1  2  3  4  5  6  7  8  9  

Terminal Aerodrome Forecast

885
FTUS44 KOHX 240534
TAFBNA
TAF
KBNA 240534Z 2406/2506 16003KT P6SM BKN250
      TEMPO 2410/2412 5SM BR
     FM241900 20006KT P6SM VCSH SCT045 BKN080
     FM250000 20004KT P6SM FEW045 SCT130 BKN250=

Latest METAR

453
SAUS70 KWBC 241600 RRJ
MTRBNA
METAR KBNA 241553Z VRB05KT 10SM FEW035 SCT250 32/22 A3005 RMK AO2 SLP166
T03220217 $


USA.gov is the U.S. government's official web portal to all federal, state and local government web resources and services.